NCAR-RAP Real-Time Weather Data

Output produced by METARs form (30 September 2016  23:46 UTC)
found at http://weather.rap.ucar.edu/surface/
 
Conditions at: K4O4 observed 30 September 2016  23:35 UTC
Temperature: 24.0°C (75°F)
Dewpoint: 9.0°C (48°F) [RH = 38%]
Pressure (altimeter): 30.07 inches Hg (1018.4 mb)
Winds: calm
Visibility: 10 or more miles (16+ km)
Ceiling: at least 12,000 feet AGL
Clouds: sky clear below 12,000 feet AGL
Present Weather: automated observation with no human augmentation;
there may or may not be significant weather present at this time
K4O4 302335Z AUTO 00000KT 10SM CLR 24/09 A3007 RMK AO2